Terminal Aerodrome Forecast
Issued by NWS Shreveport, LA

Home | Current Version | Previous Version | Text Only | Print | Product List | Glossary On
Versions: 1 2 3 4 5 6 7 8 9 10 11 12 13 14 15 16 17
000
FTUS44 KSHV 251100
TAFTXK
TAF
KTXK 251137Z 2512/2612 21008KT P6SM SCT250
     FM251500 27010KT P6SM SCT120 SCT250
     FM251700 29014G25KT P6SM SCT120 SCT250
     FM252100 30014G25KT P6SM BKN045
     FM260000 30010KT P6SM BKN045
     FM260400 31008KT P6SM FEW250=

USA.gov is the U.S. government's official web portal to all federal, state and local government web resources and services.